createdAt,value
2023-01-23T00:01:27.929Z,101042.19
2023-01-23T00:03:55.541Z,101037.84
2023-01-23T00:06:23.289Z,101028.31
2023-01-23T00:08:50.224Z,101024.75
2023-01-23T00:11:20.486Z,101032.31
2023-01-23T00:13:48.066Z,101023.56
2023-01-23T00:16:21.197Z,101021.69
2023-01-23T00:18:49.199Z,101033.16
2023-01-23T00:21:18.527Z,101027.28
2023-01-23T00:23:49.713Z,101022.75
2023-01-23T00:26:20.262Z,101027.94
2023-01-23T00:28:48.081Z,101021.22
2023-01-23T00:31:18.627Z,101029.88
2023-01-23T00:33:46.338Z,101025.91
2023-01-23T00:36:15.165Z,101035.50
2023-01-23T00:38:42.630Z,101032.13
2023-01-23T00:41:09.651Z,101042.53
2023-01-23T00:43:36.517Z,101041.81
2023-01-23T00:46:03.472Z,101039.16
2023-01-23T00:48:30.663Z,101034.72
2023-01-23T00:50:57.538Z,101041.59
2023-01-23T00:53:24.948Z,101037.25
2023-01-23T00:55:51.777Z,101036.38
2023-01-23T00:58:18.614Z,101037.19
2023-01-23T01:00:45.608Z,101024.16
2023-01-23T01:03:12.976Z,101039.00
2023-01-23T01:05:40.091Z,101033.81
2023-01-23T01:08:07.031Z,101042.50
2023-01-23T01:10:34.370Z,101047.78
2023-01-23T01:13:03.120Z,101046.16
2023-01-23T01:15:30.234Z,101046.22
2023-01-23T01:17:58.198Z,101034.97
2023-01-23T01:20:27.588Z,101022.56
2023-01-23T01:22:56.722Z,101021.75
2023-01-23T01:25:23.834Z,101006.44
2023-01-23T01:27:51.151Z,101005.34
2023-01-23T01:30:19.292Z,101002.34
2023-01-23T01:32:46.327Z,101000.00
2023-01-23T01:35:13.278Z,101005.13
2023-01-23T01:37:41.182Z,101012.75
2023-01-23T01:40:12.904Z,101008.44
2023-01-23T01:42:50.483Z,101006.78
2023-01-23T01:45:54.963Z,101015.31
2023-01-23T01:48:26.159Z,101025.31
2023-01-23T01:50:53.731Z,101022.78
2023-01-23T01:53:23.625Z,101019.00
2023-01-23T01:55:50.560Z,101015.97
2023-01-23T01:58:18.607Z,101021.06
2023-01-23T02:00:45.538Z,101026.69
2023-01-23T02:03:12.813Z,101031.41
2023-01-23T02:05:43.703Z,101021.22
2023-01-23T02:08:52.339Z,101020.72
2023-01-23T02:11:19.330Z,101013.78
2023-01-23T02:13:46.254Z,101019.75
2023-01-23T02:16:15.966Z,101015.88
2023-01-23T02:18:46.123Z,101013.50
2023-01-23T02:21:15.409Z,101010.66
2023-01-23T02:24:13.158Z,101008.09
2023-01-23T02:26:44.629Z,101002.41
2023-01-23T02:29:12.923Z,101003.28
2023-01-23T02:31:40.748Z,101003.13
2023-01-23T02:34:12.051Z,101008.38
2023-01-23T02:36:41.688Z,101007.56
2023-01-23T02:39:10.311Z,101002.56
2023-01-23T02:41:46.153Z,101002.34
2023-01-23T02:44:23.078Z,101001.63
2023-01-23T02:46:49.901Z,100996.97
2023-01-23T02:49:16.869Z,100994.75
2023-01-23T02:51:43.763Z,100993.53
2023-01-23T02:54:10.567Z,100985.00
2023-01-23T02:56:37.438Z,100982.47
2023-01-23T02:59:04.488Z,100973.75
2023-01-23T03:01:31.824Z,100970.06
2023-01-23T03:03:58.661Z,100968.50
2023-01-23T03:06:25.565Z,100972.03
2023-01-23T03:08:52.397Z,100969.44
2023-01-23T03:11:19.563Z,100971.81
2023-01-23T03:13:47.640Z,100971.97
2023-01-23T03:16:14.662Z,100967.56
2023-01-23T03:18:53.590Z,100966.78
2023-01-23T03:21:21.808Z,100969.38
2023-01-23T03:23:48.702Z,100970.25
2023-01-23T03:26:16.152Z,100969.25
2023-01-23T03:28:42.984Z,100973.66
2023-01-23T03:31:11.011Z,100964.97
2023-01-23T03:33:37.853Z,100967.50
2023-01-23T03:36:07.755Z,100959.72
2023-01-23T03:38:34.713Z,100951.25
2023-01-23T03:41:01.597Z,100959.84
2023-01-23T03:43:32.273Z,100950.31
2023-01-23T03:45:59.783Z,100952.91
2023-01-23T03:48:27.133Z,100952.56
2023-01-23T03:50:53.989Z,100958.56
2023-01-23T03:53:20.843Z,100962.22
2023-01-23T03:55:47.941Z,100964.06
2023-01-23T03:58:15.109Z,100960.34
2023-01-23T04:00:42.008Z,100970.00
2023-01-23T04:03:09.278Z,100957.84
2023-01-23T04:05:36.173Z,100960.69
2023-01-23T04:08:03.933Z,100960.84
2023-01-23T04:10:32.434Z,100962.34
2023-01-23T04:12:59.419Z,100969.88
2023-01-23T04:15:26.223Z,100962.28
2023-01-23T04:17:53.093Z,100965.41
2023-01-23T04:20:20.176Z,100971.66
2023-01-23T04:22:47.421Z,100968.97
2023-01-23T04:25:14.352Z,100966.03
2023-01-23T04:27:41.161Z,100958.34
2023-01-23T04:30:08.953Z,100964.38
2023-01-23T04:32:35.851Z,100965.06
2023-01-23T04:35:02.721Z,100967.56
2023-01-23T04:37:29.707Z,100967.91
2023-01-23T04:39:59.165Z,100970.91
2023-01-23T04:42:25.963Z,100970.16
2023-01-23T04:44:52.822Z,100970.16
2023-01-23T04:47:19.742Z,100973.56
2023-01-23T04:49:46.582Z,100977.00
2023-01-23T04:52:13.528Z,100974.88
2023-01-23T04:54:40.346Z,100986.84
2023-01-23T04:57:07.271Z,100988.41
2023-01-23T04:59:34.097Z,100990.22
2023-01-23T05:02:00.927Z,100984.41
2023-01-23T05:04:28.383Z,100999.06
2023-01-23T05:06:55.204Z,100996.78
2023-01-23T05:09:22.030Z,100990.88
2023-01-23T05:11:48.873Z,101000.81
2023-01-23T05:14:15.755Z,100992.84
2023-01-23T05:16:42.671Z,100997.44
2023-01-23T05:19:09.528Z,101000.84
2023-01-23T05:21:36.469Z,100993.56
2023-01-23T05:24:04.018Z,100991.38
2023-01-23T05:26:30.965Z,100994.59
2023-01-23T05:28:57.914Z,100994.94
2023-01-23T05:31:24.943Z,100988.97
2023-01-23T05:33:51.917Z,100975.22
2023-01-23T05:36:18.860Z,100990.88
2023-01-23T05:38:45.786Z,100986.22
2023-01-23T05:41:12.804Z,100995.66
2023-01-23T05:43:39.665Z,101003.63
2023-01-23T05:46:06.586Z,101012.09
2023-01-23T05:48:33.521Z,101004.75
2023-01-23T05:51:03.341Z,101009.47
2023-01-23T05:53:30.298Z,101016.53
2023-01-23T05:55:57.266Z,101028.53
2023-01-23T05:58:24.297Z,101034.28
2023-01-23T06:00:51.119Z,101029.47
2023-01-23T06:03:17.947Z,101033.72
2023-01-23T06:05:44.783Z,101038.38
2023-01-23T06:08:11.643Z,101040.59
2023-01-23T06:10:38.691Z,101042.66
2023-01-23T06:13:05.816Z,101041.50
2023-01-23T06:15:32.666Z,101052.78
2023-01-23T06:17:59.629Z,101057.47
2023-01-23T06:20:26.649Z,101054.59
2023-01-23T06:22:53.598Z,101065.53
2023-01-23T06:25:20.472Z,101073.13
2023-01-23T06:27:47.316Z,101073.38
2023-01-23T06:30:14.573Z,101077.28
2023-01-23T06:32:41.959Z,101072.19
2023-01-23T06:35:09.331Z,101067.22
2023-01-23T06:37:36.474Z,101066.84
2023-01-23T06:40:04.184Z,101072.56
2023-01-23T06:42:30.969Z,101069.72
2023-01-23T06:44:57.888Z,101076.75
2023-01-23T06:47:24.752Z,101077.94
2023-01-23T06:49:51.639Z,101082.34
2023-01-23T06:52:18.593Z,101074.94
2023-01-23T06:54:45.525Z,101082.00
2023-01-23T06:57:12.499Z,101081.69
2023-01-23T06:59:39.428Z,101080.66
2023-01-23T07:02:06.724Z,101085.06
2023-01-23T07:04:33.715Z,101092.22
2023-01-23T07:07:00.682Z,101093.38
2023-01-23T07:09:27.666Z,101096.94
2023-01-23T07:11:54.616Z,101101.94
2023-01-23T07:14:21.963Z,101100.44
2023-01-23T07:16:48.892Z,101103.97
2023-01-23T07:19:15.710Z,101115.09
2023-01-23T07:21:42.336Z,101118.69
2023-01-23T07:24:09.020Z,101115.25
2023-01-23T07:26:35.634Z,101117.09
2023-01-23T07:29:02.246Z,101115.78
2023-01-23T07:31:28.954Z,101113.47
2023-01-23T07:33:55.559Z,101119.78
2023-01-23T07:36:22.161Z,101121.72
2023-01-23T07:38:49.036Z,101121.66
2023-01-23T07:41:15.722Z,101116.56
2023-01-23T07:43:42.328Z,101124.53
2023-01-23T07:46:08.968Z,101119.53
2023-01-23T07:48:37.095Z,101114.63
2023-01-23T07:51:04.586Z,101114.41
2023-01-23T07:53:31.354Z,101111.31
2023-01-23T07:55:57.965Z,101120.09
2023-01-23T07:58:24.598Z,101123.75
2023-01-23T08:00:51.368Z,101113.75
2023-01-23T08:03:18.051Z,101110.38
2023-01-23T08:05:49.236Z,101120.31
2023-01-23T08:08:15.964Z,101123.59
2023-01-23T08:10:42.568Z,101127.38
2023-01-23T08:13:09.659Z,101125.53
2023-01-23T08:15:37.596Z,101122.00
2023-01-23T08:18:04.549Z,101117.44
2023-01-23T08:20:31.142Z,101115.78
2023-01-23T08:22:57.761Z,101119.09
2023-01-23T08:25:24.478Z,101117.41
2023-01-23T08:27:51.083Z,101123.50
2023-01-23T08:30:18.181Z,101119.41
2023-01-23T08:32:44.922Z,101112.69
2023-01-23T08:35:11.540Z,101124.81
2023-01-23T08:37:38.230Z,101119.78
2023-01-23T08:40:05.412Z,101116.34
2023-01-23T08:42:32.122Z,101123.34
2023-01-23T08:44:58.697Z,101123.22
2023-01-23T08:47:25.314Z,101125.78
2023-01-23T08:49:51.943Z,101121.69
2023-01-23T08:52:18.633Z,101120.66
2023-01-23T08:54:45.221Z,101126.75
2023-01-23T08:57:11.860Z,101121.59
2023-01-23T08:59:38.432Z,101124.44
2023-01-23T09:02:05.046Z,101131.41
2023-01-23T09:04:31.788Z,101126.91
2023-01-23T09:06:58.376Z,101120.06
2023-01-23T09:09:25.033Z,101125.34
2023-01-23T09:11:51.828Z,101125.38
2023-01-23T09:14:18.414Z,101133.97
2023-01-23T09:16:45.059Z,101132.38
2023-01-23T09:19:11.966Z,101130.63
2023-01-23T09:21:38.829Z,101130.72
2023-01-23T09:24:05.687Z,101131.56
2023-01-23T09:26:32.272Z,101129.75
2023-01-23T09:28:59.086Z,101129.91
2023-01-23T09:31:26.043Z,101129.03
2023-01-23T09:33:52.879Z,101130.81
2023-01-23T09:36:27.477Z,101124.69
2023-01-23T09:39:00.879Z,101125.53
2023-01-23T09:41:28.620Z,101130.81
2023-01-23T09:44:28.384Z,101127.31
2023-01-23T09:47:00.630Z,101115.13
2023-01-23T09:49:35.358Z,101111.69
2023-01-23T09:52:19.741Z,101120.50
2023-01-23T09:54:59.966Z,101113.50
2023-01-23T09:57:35.459Z,101117.00
2023-01-23T10:00:05.883Z,101131.84
2023-01-23T10:02:33.092Z,101122.22
2023-01-23T10:04:59.916Z,101118.72
2023-01-23T10:07:47.922Z,101112.59
2023-01-23T10:10:32.311Z,101121.34
2023-01-23T10:13:16.644Z,101114.38
2023-01-23T10:16:02.125Z,101121.38
2023-01-23T10:18:42.374Z,101116.13
2023-01-23T10:21:27.983Z,101114.34
2023-01-23T10:24:06.092Z,101108.13
2023-01-23T10:26:44.000Z,101110.75
2023-01-23T10:29:25.258Z,101103.78
2023-01-23T10:31:55.892Z,101116.88
2023-01-23T10:34:32.719Z,101114.19
2023-01-23T10:37:19.672Z,101119.41
2023-01-23T10:39:55.746Z,101127.31
2023-01-23T10:42:26.034Z,101107.22
2023-01-23T10:44:54.654Z,101111.56
2023-01-23T10:47:37.138Z,101109.88
2023-01-23T10:50:06.812Z,101112.53
2023-01-23T10:52:42.992Z,101112.53
2023-01-23T10:55:19.230Z,101106.41
2023-01-23T10:57:49.194Z,101108.97
2023-01-23T11:00:27.083Z,101110.72
2023-01-23T11:02:54.071Z,101104.56
2023-01-23T11:05:54.715Z,101104.41
2023-01-23T11:08:29.500Z,101112.97
2023-01-23T11:11:14.798Z,101101.56
2023-01-23T11:13:43.801Z,101106.09
2023-01-23T11:16:21.924Z,101096.38
2023-01-23T11:19:05.410Z,101099.19
2023-01-23T11:21:59.766Z,101096.53
2023-01-23T11:24:39.702Z,101097.31
2023-01-23T11:27:13.603Z,101095.53
2023-01-23T11:30:24.948Z,101077.09
2023-01-23T11:32:59.257Z,101081.41
2023-01-23T11:35:48.499Z,101078.00
2023-01-23T11:38:19.728Z,101078.78
2023-01-23T11:40:51.602Z,101073.25
2023-01-23T11:43:19.060Z,101075.19
2023-01-23T11:45:51.099Z,101074.88
2023-01-23T11:48:23.183Z,101074.03
2023-01-23T11:50:55.745Z,101070.78
2023-01-23T11:53:44.573Z,101075.94
2023-01-23T11:56:34.810Z,101079.53
2023-01-23T11:59:38.589Z,101074.94
2023-01-23T12:02:10.740Z,101083.75
2023-01-23T12:04:55.613Z,101075.75
2023-01-23T12:07:24.550Z,101078.38
2023-01-23T12:10:03.216Z,101081.81
2023-01-23T12:12:48.443Z,101083.31
2023-01-23T12:15:36.975Z,101072.06
2023-01-23T12:18:22.060Z,101066.03
2023-01-23T12:21:25.959Z,101069.31
2023-01-23T12:24:11.354Z,101064.16
2023-01-23T12:27:06.135Z,101068.38
2023-01-23T12:30:06.936Z,101062.59
2023-01-23T12:33:10.609Z,101057.59
2023-01-23T12:35:43.357Z,101053.88
2023-01-23T12:38:18.664Z,101057.50
2023-01-23T12:40:53.047Z,101055.63
2023-01-23T12:43:35.417Z,101054.63
2023-01-23T12:46:10.747Z,101064.28
2023-01-23T12:48:59.974Z,101068.63
2023-01-23T12:51:38.657Z,101072.97
2023-01-23T12:54:17.174Z,101065.88
2023-01-23T12:56:45.101Z,101068.59
2023-01-23T12:59:11.863Z,101068.59
2023-01-23T13:01:59.787Z,101065.72
2023-01-23T13:05:05.425Z,101073.34
2023-01-23T13:07:35.049Z,101069.25
2023-01-23T13:10:07.201Z,101079.50
2023-01-23T13:12:34.548Z,101075.06
2023-01-23T13:15:17.365Z,101075.91
2023-01-23T13:17:57.972Z,101080.50
2023-01-23T13:20:34.285Z,101077.72
2023-01-23T13:23:25.337Z,101082.22
2023-01-23T13:26:16.879Z,101084.06
2023-01-23T13:28:54.291Z,101091.09
2023-01-23T13:31:32.889Z,101096.28
2023-01-23T13:34:14.677Z,101092.94
2023-01-23T13:36:46.562Z,101096.53
2023-01-23T13:39:28.151Z,101104.56
2023-01-23T13:42:13.001Z,101101.94
2023-01-23T13:45:16.743Z,101103.81
2023-01-23T14:21:49.688Z,101116.50
2023-01-23T14:24:25.541Z,101113.19
2023-01-23T14:27:02.501Z,101114.00
2023-01-23T14:29:31.316Z,101111.41
2023-01-23T14:31:57.911Z,101112.25
2023-01-23T14:34:26.178Z,101110.44
2023-01-23T14:37:00.149Z,101116.56
2023-01-23T14:39:28.785Z,101101.91
2023-01-23T14:42:02.049Z,101114.19
2023-01-23T14:44:41.634Z,101112.44
2023-01-23T14:47:26.140Z,101115.88
2023-01-23T14:49:54.513Z,101119.38
2023-01-23T14:52:29.549Z,101117.66
2023-01-23T14:54:59.135Z,101117.75
2023-01-23T14:57:28.780Z,101115.97
2023-01-23T14:59:57.450Z,101123.00
2023-01-23T15:02:29.994Z,101116.91
2023-01-23T15:05:11.976Z,101115.88
2023-01-23T15:07:53.458Z,101121.19
2023-01-23T15:10:20.154Z,101114.19
2023-01-23T15:13:08.495Z,101122.16
2023-01-23T15:15:35.696Z,101114.22
2023-01-23T15:18:06.095Z,101122.06
2023-01-23T15:20:36.776Z,101130.78
2023-01-23T15:23:26.415Z,101131.66
2023-01-23T15:26:09.083Z,101127.31
2023-01-23T15:28:47.880Z,101132.53
2023-01-23T15:31:26.710Z,101122.06
2023-01-23T15:33:55.017Z,101125.63
2023-01-23T15:36:28.218Z,101136.09
2023-01-23T15:38:57.345Z,101138.75
2023-01-23T15:41:45.021Z,101142.97
2023-01-23T15:44:20.415Z,101138.75
2023-01-23T15:46:47.298Z,101140.53
2023-01-23T15:49:24.877Z,101143.13
2023-01-23T15:51:52.286Z,101131.75
2023-01-23T15:54:32.576Z,101138.81
2023-01-23T15:57:07.585Z,101139.66
2023-01-23T15:59:35.764Z,101151.84
2023-01-23T16:02:02.474Z,101147.38
2023-01-23T16:04:29.247Z,101150.03
2023-01-23T16:07:25.916Z,101152.78
2023-01-23T16:09:52.964Z,101153.69
2023-01-23T16:12:20.696Z,101157.16
2023-01-23T16:14:48.158Z,101157.19
2023-01-23T16:17:17.171Z,101162.34
2023-01-23T16:19:44.482Z,101162.28
2023-01-23T16:22:23.822Z,101165.84
2023-01-23T16:24:50.611Z,101167.50
2023-01-23T16:27:19.289Z,101164.91
2023-01-23T16:29:46.518Z,101177.19
2023-01-23T16:32:13.272Z,101174.56
2023-01-23T16:34:40.052Z,101173.72
2023-01-23T16:37:14.704Z,101179.88
2023-01-23T16:39:43.291Z,101176.38
2023-01-23T16:42:23.041Z,101175.56
2023-01-23T16:44:50.876Z,101183.41
2023-01-23T16:47:17.665Z,101177.28
2023-01-23T16:49:51.923Z,101186.91
2023-01-23T16:52:20.825Z,101194.75
2023-01-23T16:54:47.500Z,101198.25
2023-01-23T16:57:19.420Z,101200.88
2023-01-23T16:59:46.575Z,101204.38
2023-01-23T17:02:29.712Z,101215.72
2023-01-23T17:04:56.390Z,101216.63
2023-01-23T17:07:23.123Z,101214.84
2023-01-23T17:09:49.771Z,101215.69
2023-01-23T17:12:23.296Z,101220.09
2023-01-23T17:14:51.030Z,101209.59
2023-01-23T17:17:36.889Z,101217.50
2023-01-23T17:20:04.671Z,101216.59
2023-01-23T17:22:37.889Z,101223.56
2023-01-23T17:25:12.941Z,101217.47
2023-01-23T17:27:45.368Z,101219.13
2023-01-23T17:30:22.345Z,101228.78
2023-01-23T17:32:52.976Z,101220.75
2023-01-23T17:35:25.055Z,101230.38
2023-01-23T17:37:51.993Z,101222.53
2023-01-23T17:40:19.113Z,101228.81
2023-01-23T17:42:45.715Z,101226.19
2023-01-23T17:45:14.215Z,101223.56
2023-01-23T17:47:43.887Z,101231.44
2023-01-23T17:50:25.588Z,101229.72
2023-01-23T17:52:53.293Z,101234.09
2023-01-23T17:55:22.858Z,101221.81
2023-01-23T17:57:49.900Z,101224.28
2023-01-23T18:00:18.993Z,101225.19
2023-01-23T18:02:57.212Z,101230.38
2023-01-23T18:05:24.630Z,101228.59
2023-01-23T18:07:54.134Z,101232.94
2023-01-23T18:10:21.978Z,101237.22
2023-01-23T18:12:58.285Z,101230.34
2023-01-23T18:15:38.937Z,101237.38
2023-01-23T18:18:12.365Z,101239.28
2023-01-23T18:20:39.367Z,101232.19
2023-01-23T18:23:06.344Z,101235.59
2023-01-23T18:25:33.186Z,101231.31
2023-01-23T18:28:13.593Z,101222.50
2023-01-23T18:30:56.264Z,101224.38
2023-01-23T18:33:25.563Z,101225.06
2023-01-23T18:36:07.829Z,101228.59
2023-01-23T18:38:59.188Z,101231.34
2023-01-23T18:41:27.998Z,101231.22
2023-01-23T18:44:07.378Z,101225.16
2023-01-23T18:46:34.353Z,101225.16
2023-01-23T18:49:01.258Z,101224.19
2023-01-23T18:51:42.823Z,101222.34
2023-01-23T18:54:35.775Z,101228.47
2023-01-23T18:57:21.125Z,101233.69
2023-01-23T19:00:07.814Z,101241.56
2023-01-23T19:03:20.928Z,101244.13
2023-01-23T19:05:47.807Z,101244.97
2023-01-23T19:08:29.873Z,101247.50
2023-01-23T19:11:04.719Z,101255.34
2023-01-23T19:14:01.220Z,101253.59
2023-01-23T19:16:41.662Z,101257.13
2023-01-23T19:19:22.984Z,101253.69
2023-01-23T19:21:51.258Z,101250.28
2023-01-23T19:24:19.527Z,101257.38
2023-01-23T19:26:46.501Z,101260.69
2023-01-23T19:29:21.621Z,101260.63
2023-01-23T19:32:03.626Z,101256.25
2023-01-23T19:34:32.165Z,101257.09
2023-01-23T19:36:58.790Z,101270.06
2023-01-23T19:39:25.417Z,101273.53
2023-01-23T19:41:52.714Z,101271.72
2023-01-23T19:44:20.939Z,101271.06
2023-01-23T19:46:48.808Z,101269.22
2023-01-23T19:49:15.453Z,101274.38
2023-01-23T19:51:42.333Z,101278.88
2023-01-23T19:54:14.017Z,101283.94
2023-01-23T19:56:41.109Z,101282.13
2023-01-23T19:59:08.396Z,101289.06
2023-01-23T20:01:39.000Z,101294.53
2023-01-23T20:04:08.009Z,101292.56
2023-01-23T20:06:34.752Z,101298.63
2023-01-23T20:09:01.340Z,101299.47
2023-01-23T20:11:27.949Z,101300.53
2023-01-23T20:13:54.599Z,101297.75
2023-01-23T20:16:23.821Z,101302.91
2023-01-23T20:18:51.393Z,101304.75
2023-01-23T20:21:20.385Z,101303.28
2023-01-23T20:23:47.646Z,101299.53
2023-01-23T20:26:16.175Z,101302.97
2023-01-23T20:28:43.268Z,101301.28
2023-01-23T20:31:12.161Z,101306.19
2023-01-23T20:33:39.440Z,101310.38
2023-01-23T20:36:07.328Z,101313.84
2023-01-23T20:38:34.055Z,101317.16
2023-01-23T20:41:10.288Z,101325.03
2023-01-23T20:43:37.217Z,101317.88
2023-01-23T20:46:06.135Z,101327.53
2023-01-23T20:48:37.180Z,101326.72
2023-01-23T20:51:05.498Z,101337.19
2023-01-23T20:53:33.042Z,101335.34
2023-01-23T20:56:19.211Z,101335.28
2023-01-23T20:58:48.084Z,101338.03
2023-01-23T21:01:15.266Z,101341.88
2023-01-23T21:03:42.058Z,101341.91
2023-01-23T21:06:10.284Z,101347.28
2023-01-23T21:08:37.607Z,101355.75
2023-01-23T21:11:18.354Z,101355.75
2023-01-23T21:13:50.688Z,101351.06
2023-01-23T21:16:18.137Z,101368.22
2023-01-23T21:18:46.074Z,101366.19
2023-01-23T21:21:15.818Z,101358.41
2023-01-23T21:23:43.031Z,101359.16
2023-01-23T21:26:09.738Z,101367.91
2023-01-23T21:28:36.450Z,101367.38
2023-01-23T21:31:15.362Z,101365.69
2023-01-23T21:33:43.217Z,101365.78
2023-01-23T21:36:11.376Z,101369.09
2023-01-23T21:38:38.406Z,101376.81
2023-01-23T21:41:05.454Z,101376.31
2023-01-23T21:43:32.294Z,101375.56
2023-01-23T21:45:58.961Z,101386.63
2023-01-23T21:48:25.800Z,101380.84
2023-01-23T21:50:52.441Z,101380.63
2023-01-23T21:53:19.037Z,101380.63
2023-01-23T21:55:51.805Z,101378.94
2023-01-23T21:58:18.469Z,101389.53
2023-01-23T22:00:45.069Z,101385.16
2023-01-23T22:03:11.679Z,101377.31
2023-01-23T22:05:38.337Z,101386.63
2023-01-23T22:08:05.076Z,101382.19
2023-01-23T22:10:31.923Z,101382.50
2023-01-23T22:12:58.646Z,101388.28
2023-01-23T22:15:25.542Z,101392.69
2023-01-23T22:17:52.374Z,101387.19
2023-01-23T22:20:19.013Z,101397.03
2023-01-23T22:22:45.590Z,101400.56
2023-01-23T22:25:12.304Z,101402.91
2023-01-23T22:27:38.950Z,101404.19
2023-01-23T22:30:06.301Z,101404.38
2023-01-23T22:32:33.656Z,101407.84
2023-01-23T22:35:00.266Z,101417.28
2023-01-23T22:37:26.851Z,101421.09
2023-01-23T22:39:53.579Z,101418.69
2023-01-23T22:42:20.352Z,101417.00
2023-01-23T22:44:46.940Z,101422.78
2023-01-23T22:47:13.733Z,101421.94
2023-01-23T22:49:40.403Z,101421.38
2023-01-23T22:52:08.542Z,101425.53
2023-01-23T22:54:35.967Z,101430.13
2023-01-23T22:57:02.587Z,101435.53
2023-01-23T22:59:29.302Z,101432.97
2023-01-23T23:01:56.058Z,101439.25
2023-01-23T23:04:22.686Z,101443.38
2023-01-23T23:06:49.326Z,101439.50
2023-01-23T23:09:15.949Z,101441.41
2023-01-23T23:11:42.624Z,101440.59
2023-01-23T23:14:10.186Z,101443.47
2023-01-23T23:16:36.869Z,101443.78
2023-01-23T23:19:04.469Z,101439.47
2023-01-23T23:21:34.114Z,101439.06
2023-01-23T23:24:00.878Z,101439.88
2023-01-23T23:26:29.567Z,101433.72
2023-01-23T23:28:56.305Z,101443.25
2023-01-23T23:31:23.297Z,101440.66
2023-01-23T23:33:50.116Z,101442.44
2023-01-23T23:36:17.584Z,101436.97
2023-01-23T23:38:44.308Z,101442.91
2023-01-23T23:41:15.603Z,101442.03
2023-01-23T23:43:45.361Z,101445.69
2023-01-23T23:46:14.077Z,101442.38
2023-01-23T23:48:41.038Z,101444.97
2023-01-23T23:51:10.431Z,101456.81
2023-01-23T23:53:37.062Z,101455.78
2023-01-23T23:56:05.013Z,101455.84
2023-01-23T23:58:32.622Z,101453.19
